Time;durP1;ratioP1;P1;durP2;ratioP2;P2;SDS_P1;SDS_P2;PMS_P1;PMS_P2;Temp;Humidity;BMP_temperature;BMP_pressure;BME280_temperature;BME280_humidity;BME280_pressure;Samples;Min_cycle;Max_cycle;Signal;HPM_P1;HPM_P2
2021/03/18 00:00:59;;;;;;;;;;;;;;;18.89;36.75;99902.66;5058852;28;772;-58
2021/03/18 00:03:25;;;;;;;;;;;;;;;19.66;35.49;99906.28;5059269;28;956;-60
2021/03/18 00:05:51;;;;;;;;;;;;;;;20.35;33.79;99907.75;5059098;28;898;-59
2021/03/18 00:08:16;;;;;;;;;;;;;;;19.77;34.98;99909.63;5058944;28;831;-45
2021/03/18 00:10:42;;;;;;;;;;;;;;;19.71;35.01;99908.09;5058978;28;1975;-46
2021/03/18 00:13:08;;;;;;;;;;;;;;;19.36;35.62;99905.94;5059108;28;791;-60
2021/03/18 00:15:34;;;;;;;;;;;;;;;19.07;36.32;99907.19;5058654;28;816;-60
2021/03/18 00:17:59;;;;;;;;;;;;;;;20.00;34.68;99907.63;5059749;28;1178;-61
2021/03/18 00:20:24;;;;;;;;;;;;;;;19.86;34.84;99907.72;5058743;28;890;-55
2021/03/18 00:22:50;;;;;;;;;;;;;;;19.77;35.07;99910.41;5058396;28;867;-61
2021/03/18 00:25:16;;;;;;;;;;;;;;;19.48;35.63;99914.44;5058819;28;764;-46
2021/03/18 00:27:41;;;;;;;;;;;;;;;19.31;35.93;99919.84;5058753;28;745;-45
2021/03/18 00:30:07;;;;;;;;;;;;;;;20.09;34.36;99910.41;5058517;28;1918;-58
2021/03/18 00:32:33;;;;;;;;;;;;;;;20.08;34.16;99906.84;5058653;28;1171;-58
2021/03/18 00:34:58;;;;;;;;;;;;;;;19.87;34.90;99914.06;5058452;28;752;-60
2021/03/18 00:37:24;;;;;;;;;;;;;;;19.65;35.12;99907.41;5058211;28;748;-46
2021/03/18 00:39:49;;;;;;;;;;;;;;;19.17;36.23;99916.31;5058531;28;768;-45
2021/03/18 00:42:15;;;;;;;;;;;;;;;19.92;34.82;99908.41;5058321;28;740;-46
2021/03/18 00:44:40;;;;;;;;;;;;;;;20.09;34.33;99911.25;5057515;28;768;-60
2021/03/18 00:47:06;;;;;;;;;;;;;;;19.79;34.85;99913.69;5058552;28;964;-61
2021/03/18 00:49:31;;;;;;;;;;;;;;;19.67;35.22;99917.00;5058057;28;767;-59
2021/03/18 00:51:57;;;;;;;;;;;;;;;19.14;36.07;99918.59;5057950;28;1981;-61
2021/03/18 00:54:22;;;;;;;;;;;;;;;19.35;35.81;99918.09;5058208;28;784;-48
2021/03/18 00:56:48;;;;;;;;;;;;;;;20.17;34.12;99907.72;5040346;28;815;-50
2021/03/18 00:59:14;;;;;;;;;;;;;;;19.83;34.97;99916.63;5057833;28;811;-52
2021/03/18 01:01:39;;;;;;;;;;;;;;;19.85;34.67;99913.56;5058381;28;1006;-47
2021/03/18 01:04:05;;;;;;;;;;;;;;;19.49;35.53;99909.78;5058343;28;826;-61
2021/03/18 01:06:30;;;;;;;;;;;;;;;19.45;35.80;99914.28;5058502;28;771;-45
2021/03/18 01:08:59;;;;;;;;;;;;;;;20.35;33.85;99910.50;5056602;28;1246;-47
2021/03/18 01:11:26;;;;;;;;;;;;;;;19.82;34.78;99910.31;5057924;28;1906;-46
2021/03/18 01:13:52;;;;;;;;;;;;;;;19.78;34.98;99914.81;5057985;28;792;-45
2021/03/18 01:16:18;;;;;;;;;;;;;;;19.44;35.69;99915.41;5057320;28;894;-59
2021/03/18 01:18:57;;;;;;;;;;;;;;;19.36;35.92;99911.44;5058102;28;988;-59
2021/03/18 01:21:23;;;;;;;;;;;;;;;20.34;34.05;99909.72;5057640;28;848;-45
2021/03/18 01:23:49;;;;;;;;;;;;;;;19.93;34.72;99908.06;5057576;28;783;-58
2021/03/18 01:26:14;;;;;;;;;;;;;;;19.86;34.74;99901.41;5057701;28;871;-60
2021/03/18 01:28:40;;;;;;;;;;;;;;;19.37;35.83;99899.28;5057520;28;831;-55
2021/03/18 01:31:06;;;;;;;;;;;;;;;19.17;36.29;99897.03;5057136;28;1913;-59
2021/03/18 01:33:32;;;;;;;;;;;;;;;20.23;34.09;99897.34;5057582;28;1167;-52
2021/03/18 01:35:59;;;;;;;;;;;;;;;19.91;34.68;99904.84;5057395;28;752;-60
2021/03/18 01:38:25;;;;;;;;;;;;;;;19.82;34.86;99910.31;5056975;28;880;-60
2021/03/18 01:40:51;;;;;;;;;;;;;;;19.19;35.92;99905.81;5057993;28;812;-49
2021/03/18 01:43:16;;;;;;;;;;;;;;;19.21;36.08;99903.53;5057242;28;860;-60
2021/03/18 01:45:41;;;;;;;;;;;;;;;20.14;34.20;99897.28;5056943;28;855;-52
2021/03/18 01:48:07;;;;;;;;;;;;;;;20.23;33.87;99896.50;5057963;28;962;-60
2021/03/18 01:50:33;;;;;;;;;;;;;;;20.07;34.53;99902.47;5056843;28;1905;-55
2021/03/18 01:52:59;;;;;;;;;;;;;;;19.54;35.46;99906.84;5056815;28;954;-50
2021/03/18 01:55:24;;;;;;;;;;;;;;;18.94;36.38;99900.59;5057026;28;744;-45
2021/03/18 01:57:49;;;;;;;;;;;;;;;19.91;34.70;99902.06;5056507;28;834;-47
2021/03/18 02:00:15;;;;;;;;;;;;;;;20.47;33.39;99899.69;5039080;28;757;-45
2021/03/18 02:02:41;;;;;;;;;;;;;;;19.91;34.66;99913.13;5066928;28;951;-46
2021/03/18 02:05:07;;;;;;;;;;;;;;;19.84;34.67;99918.28;5076752;28;776;-59
2021/03/18 02:07:33;;;;;;;;;;;;;;;19.37;35.49;99929.63;5076817;28;791;-50
2021/03/18 02:09:58;;;;;;;;;;;;;;;19.00;36.63;99937.09;5076946;28;1965;-60
2021/03/18 02:12:24;;;;;;;;;;;;;;;19.74;35.17;99943.31;5076598;28;752;-48
2021/03/18 02:14:50;;;;;;;;;;;;;;;20.52;33.42;99940.13;5076674;28;808;-50
2021/03/18 02:17:17;;;;;;;;;;;;;;;19.93;34.38;99951.41;5057992;28;959;-55
2021/03/18 02:20:01;;;;;;;;;;;;;;;19.80;34.96;99951.19;5076337;28;768;-45
2021/03/18 02:22:32;;;;;;;;;;;;;;;19.11;36.10;99954.19;5076337;28;803;-60
2021/03/18 02:25:04;;;;;;;;;;;;;;;19.47;35.91;99953.38;5076474;28;913;-55
2021/03/18 02:27:41;;;;;;;;;;;;;;;20.32;33.96;99955.34;5076498;28;843;-52
2021/03/18 02:30:26;;;;;;;;;;;;;;;20.00;34.52;99965.56;5076090;28;1910;-62
2021/03/18 02:33:10;;;;;;;;;;;;;;;19.82;34.95;99968.25;5074962;28;996;-61
2021/03/18 02:35:38;;;;;;;;;;;;;;;19.34;35.86;99971.59;5076149;28;816;-53
2021/03/18 02:38:07;;;;;;;;;;;;;;;19.03;36.49;99976.97;5076723;28;840;-59
2021/03/18 02:40:34;;;;;;;;;;;;;;;19.93;34.89;99973.50;5076098;28;807;-45
2021/03/18 02:43:00;;;;;;;;;;;;;;;20.12;34.21;99968.56;5076029;28;851;-46
2021/03/18 02:45:28;;;;;;;;;;;;;;;19.72;35.10;99979.50;5076276;28;787;-54
2021/03/18 02:47:55;;;;;;;;;;;;;;;19.46;35.63;99980.13;5075339;28;943;-45
2021/03/18 02:50:20;;;;;;;;;;;;;;;19.15;36.25;99969.81;5058481;28;1910;-45
2021/03/18 02:52:45;;;;;;;;;;;;;;;19.71;35.24;99969.59;5058530;28;756;-45
2021/03/18 02:55:11;;;;;;;;;;;;;;;20.42;33.73;99963.31;5076127;28;756;-47
2021/03/18 02:57:36;;;;;;;;;;;;;;;19.98;34.60;99968.66;5058678;28;779;-50
2021/03/18 03:00:03;;;;;;;;;;;;;;;19.92;34.58;99975.44;5041344;28;1322;-48
2021/03/18 03:02:29;;;;;;;;;;;;;;;19.25;35.87;99978.97;5067132;28;1025;-53
2021/03/18 03:04:57;;;;;;;;;;;;;;;18.89;36.79;99991.63;5038330;28;819;-47
2021/03/18 03:07:24;;;;;;;;;;;;;;;19.92;34.62;99994.75;5038537;28;768;-45
2021/03/18 03:09:49;;;;;;;;;;;;;;;20.11;34.38;99991.78;5060095;28;1973;-45
2021/03/18 03:12:15;;;;;;;;;;;;;;;19.88;34.56;100003.97;5060201;28;779;-58
2021/03/18 03:14:41;;;;;;;;;;;;;;;19.59;35.35;100003.25;5059640;28;804;-57
2021/03/18 03:17:06;;;;;;;;;;;;;;;19.17;35.86;100007.25;5060200;28;951;-54
2021/03/18 03:19:35;;;;;;;;;;;;;;;19.54;35.38;100005.31;5042172;28;791;-56
2021/03/18 03:22:01;;;;;;;;;;;;;;;20.24;34.13;100012.13;5059506;28;796;-59
2021/03/18 03:24:27;;;;;;;;;;;;;;;19.72;35.03;100023.63;5060038;28;811;-45
2021/03/18 03:26:52;;;;;;;;;;;;;;;19.72;34.97;100031.91;5060005;28;779;-45
2021/03/18 03:29:18;;;;;;;;;;;;;;;19.12;36.07;100027.50;5059507;28;794;-58
2021/03/18 03:31:43;;;;;;;;;;;;;;;19.65;35.14;100024.06;5059916;28;1995;-45
2021/03/18 03:34:09;;;;;;;;;;;;;;;20.25;33.83;100029.53;5041907;28;1566;-58
2021/03/18 03:36:34;;;;;;;;;;;;;;;19.88;34.81;100031.56;5059833;28;767;-57
2021/03/18 03:39:00;;;;;;;;;;;;;;;19.78;34.87;100030.66;5059596;28;965;-46
2021/03/18 03:41:25;;;;;;;;;;;;;;;19.29;35.81;100026.84;5059549;28;752;-47
2021/03/18 03:43:51;;;;;;;;;;;;;;;19.42;35.60;100028.75;5059303;28;815;-46
2021/03/18 03:46:16;;;;;;;;;;;;;;;20.27;34.02;100027.25;5059891;28;768;-58
2021/03/18 03:48:41;;;;;;;;;;;;;;;19.86;34.64;100029.13;5059343;28;999;-46
2021/03/18 03:51:07;;;;;;;;;;;;;;;19.73;34.69;100030.78;5059663;28;1922;-47
2021/03/18 03:53:43;;;;;;;;;;;;;;;19.25;35.90;100028.56;5059473;28;760;-58
2021/03/18 03:56:14;;;;;;;;;;;;;;;19.08;36.47;100031.97;5059398;28;856;-47
2021/03/18 03:58:41;;;;;;;;;;;;;;;20.11;34.34;100044.22;5041226;28;559;-47
2021/03/18 04:01:13;;;;;;;;;;;;;;;20.65;33.07;100049.69;5059288;28;744;-48
2021/03/18 04:03:38;;;;;;;;;;;;;;;20.39;33.44;100046.81;5059536;28;1003;-52
2021/03/18 04:06:04;;;;;;;;;;;;;;;20.09;34.40;100053.94;5041263;28;817;-44
2021/03/18 04:08:29;;;;;;;;;;;;;;;19.85;34.79;100043.22;5040469;28;844;-44
2021/03/18 04:10:55;;;;;;;;;;;;;;;19.29;35.67;100044.22;5059272;28;1918;-45
2021/03/18 04:13:21;;;;;;;;;;;;;;;19.32;35.83;100048.25;5041091;28;753;-47
2021/03/18 04:15:47;;;;;;;;;;;;;;;20.32;33.83;100041.72;5041027;28;1084;-46
2021/03/18 04:18:12;;;;;;;;;;;;;;;20.10;34.31;100053.59;5059533;28;955;-47
2021/03/18 04:20:39;;;;;;;;;;;;;;;19.90;34.54;100054.16;5057485;28;744;-54
2021/03/18 04:23:06;;;;;;;;;;;;;;;19.69;35.03;100054.59;5040773;28;737;-65
2021/03/18 04:25:31;;;;;;;;;;;;;;;19.22;35.84;100060.31;5040836;28;900;-65
2021/03/18 04:27:57;;;;;;;;;;;;;;;20.14;34.31;100067.63;5040475;28;833;-48
2021/03/18 04:30:23;;;;;;;;;;;;;;;20.17;34.13;100067.81;5058170;28;1923;-46
2021/03/18 04:32:48;;;;;;;;;;;;;;;19.86;34.69;100064.97;5058838;28;1297;-46
2021/03/18 04:35:14;;;;;;;;;;;;;;;19.73;34.93;100063.06;5058986;28;796;-48
2021/03/18 04:37:40;;;;;;;;;;;;;;;19.14;35.95;100070.16;5058393;28;872;-49
2021/03/18 04:40:06;;;;;;;;;;;;;;;19.65;35.11;100070.13;5058474;28;921;-54
2021/03/18 04:42:31;;;;;;;;;;;;;;;20.28;34.03;100068.34;5058292;28;756;-51
2021/03/18 04:44:57;;;;;;;;;;;;;;;19.93;34.50;100070.06;5058259;28;816;-54
2021/03/18 04:47:22;;;;;;;;;;;;;;;19.98;34.29;100065.25;5040852;28;972;-58
2021/03/18 04:49:47;;;;;;;;;;;;;;;19.18;35.93;100073.13;5040291;28;756;-53
2021/03/18 04:52:16;;;;;;;;;;;;;;;19.70;35.10;100081.06;5040322;28;1975;-50
2021/03/18 04:54:42;;;;;;;;;;;;;;;20.39;33.80;100079.94;5058360;28;839;-57
2021/03/18 04:57:07;;;;;;;;;;;;;;;19.98;34.54;100084.56;5040096;28;847;-60
2021/03/18 04:59:33;;;;;;;;;;;;;;;19.83;34.79;100085.72;5057993;28;775;-58
2021/03/18 05:01:58;;;;;;;;;;;;;;;19.10;35.92;100085.66;5040499;28;1327;-56
2021/03/18 05:04:24;;;;;;;;;;;;;;;19.45;35.65;100097.06;5040318;28;752;-58
2021/03/18 05:06:50;;;;;;;;;;;;;;;20.21;34.00;100098.34;5057998;28;791;-46
2021/03/18 05:09:16;;;;;;;;;;;;;;;19.92;34.50;100104.31;5058186;28;776;-46
2021/03/18 05:11:42;;;;;;;;;;;;;;;19.85;34.66;100110.25;5057340;28;1981;-49
2021/03/18 05:14:07;;;;;;;;;;;;;;;19.39;35.62;100116.75;5040216;28;752;-49
2021/03/18 05:16:33;;;;;;;;;;;;;;;19.38;35.42;100113.22;5059340;28;960;-46
2021/03/18 05:18:58;;;;;;;;;;;;;;;20.19;33.87;100125.47;5059338;28;832;-48
2021/03/18 05:21:23;;;;;;;;;;;;;;;19.93;34.21;100120.53;5077798;28;756;-47
2021/03/18 05:23:49;;;;;;;;;;;;;;;19.79;34.55;100128.03;5059955;28;979;-47
2021/03/18 05:26:14;;;;;;;;;;;;;;;19.56;35.02;100136.25;5059663;28;823;-48
2021/03/18 05:28:40;;;;;;;;;;;;;;;19.02;36.34;100140.69;5077615;28;787;-47
2021/03/18 05:31:05;;;;;;;;;;;;;;;19.82;34.77;100150.34;5077334;28;1960;-48
2021/03/18 05:33:30;;;;;;;;;;;;;;;20.42;33.48;100156.63;5075953;28;1205;-47
2021/03/18 05:35:56;;;;;;;;;;;;;;;19.94;34.42;100157.25;5077514;28;783;-49
2021/03/18 05:38:22;;;;;;;;;;;;;;;19.78;34.66;100154.81;5077281;28;791;-50
2021/03/18 05:40:50;;;;;;;;;;;;;;;19.13;36.13;100156.69;5077024;28;772;-47
2021/03/18 05:43:15;;;;;;;;;;;;;;;19.14;36.17;100158.34;5077340;28;855;-48
2021/03/18 05:45:40;;;;;;;;;;;;;;;20.09;34.46;100164.31;5059478;28;844;-47
2021/03/18 05:48:09;;;;;;;;;;;;;;;20.02;34.26;100164.78;5075749;28;1005;-49
2021/03/18 05:50:34;;;;;;;;;;;;;;;19.83;34.52;100171.25;5076422;28;1981;-49
2021/03/18 05:53:01;;;;;;;;;;;;;;;19.56;35.10;100174.03;5076891;28;819;-48
2021/03/18 05:55:26;;;;;;;;;;;;;;;19.02;36.09;100177.31;5076782;28;764;-50
2021/03/18 05:57:52;;;;;;;;;;;;;;;19.88;34.55;100181.38;5059461;28;776;-48
2021/03/18 06:00:17;;;;;;;;;;;;;;;20.10;33.99;100186.09;5076876;28;886;-50
2021/03/18 06:02:43;;;;;;;;;;;;;;;19.76;34.90;100187.38;5075801;28;954;-50
2021/03/18 06:05:09;;;;;;;;;;;;;;;19.52;35.05;100190.41;5076896;28;792;-47
2021/03/18 06:07:38;;;;;;;;;;;;;;;19.07;35.97;100193.75;5076718;28;748;-49
2021/03/18 06:10:05;;;;;;;;;;;;;;;19.74;34.95;100203.44;5058483;28;1906;-47
2021/03/18 06:12:30;;;;;;;;;;;;;;;20.28;33.75;100202.81;5058929;28;804;-58
2021/03/18 06:14:56;;;;;;;;;;;;;;;19.85;34.59;100206.81;5076710;28;788;-57
2021/03/18 06:17:21;;;;;;;;;;;;;;;19.84;34.42;100213.47;5049973;28;1018;-57
2021/03/18 06:19:47;;;;;;;;;;;;;;;19.29;35.55;100215.13;5038479;28;760;-58
2021/03/18 06:22:12;;;;;;;;;;;;;;;19.32;35.58;100213.66;5056793;28;777;-57
2021/03/18 06:24:46;;;;;;;;;;;;;;;20.15;34.06;100219.09;5038844;28;904;-57
2021/03/18 06:27:21;;;;;;;;;;;;;;;19.82;34.58;100218.47;5056224;28;768;-56
2021/03/18 06:29:47;;;;;;;;;;;;;;;19.77;34.71;100224.88;5056542;28;820;-55
2021/03/18 06:32:12;;;;;;;;;;;;;;;19.46;35.38;100225.53;5056329;28;1984;-57
2021/03/18 06:34:44;;;;;;;;;;;;;;;19.04;36.17;100212.81;5056531;28;756;-56
2021/03/18 06:37:28;;;;;;;;;;;;;;;19.90;34.66;100222.44;5056422;28;772;-58
2021/03/18 06:39:54;;;;;;;;;;;;;;;19.93;34.25;100221.81;5056073;28;744;-55
2021/03/18 06:42:19;;;;;;;;;;;;;;;19.78;34.65;100221.00;5055569;28;858;-51
2021/03/18 06:44:45;;;;;;;;;;;;;;;19.55;34.92;100231.13;5038630;28;847;-57
2021/03/18 06:47:10;;;;;;;;;;;;;;;19.05;35.90;100231.81;5056260;28;1022;-53
2021/03/18 06:49:36;;;;;;;;;;;;;;;19.86;34.68;100229.72;5055985;28;827;-55
2021/03/18 06:52:05;;;;;;;;;;;;;;;20.22;33.91;100231.69;5056246;28;1980;-50
2021/03/18 06:54:34;;;;;;;;;;;;;;;19.79;34.62;100244.72;5055867;28;791;-54
2021/03/18 06:56:59;;;;;;;;;;;;;;;19.65;34.74;100232.88;5038345;28;843;-57
2021/03/18 06:59:25;;;;;;;;;;;;;;;19.09;36.08;100237.53;5056389;28;803;-56
2021/03/18 07:02:01;;;;;;;;;;;;;;;19.91;34.70;100237.84;5055784;28;944;-52
2021/03/18 07:04:31;;;;;;;;;;;;;;;20.18;33.92;100237.81;5056223;28;736;-48
2021/03/18 07:06:56;;;;;;;;;;;;;;;19.76;34.87;100239.81;5055003;28;745;-57
2021/03/18 07:09:22;;;;;;;;;;;;;;;19.58;35.27;100243.50;5055265;28;832;-46
2021/03/18 07:11:50;;;;;;;;;;;;;;;19.07;36.10;100246.13;5037903;28;1976;-49
2021/03/18 07:14:16;;;;;;;;;;;;;;;19.78;34.76;100247.75;5056308;28;811;-48
2021/03/18 07:16:45;;;;;;;;;;;;;;;20.42;33.42;100244.97;5037780;28;1034;-49
2021/03/18 07:19:22;;;;;;;;;;;;;;;19.94;34.49;100240.03;5056144;28;744;-49
2021/03/18 07:21:48;;;;;;;;;;;;;;;19.77;34.66;100243.41;5037906;28;864;-48
2021/03/18 07:24:27;;;;;;;;;;;;;;;19.34;35.70;100251.97;5055580;28;761;-53
2021/03/18 07:26:53;;;;;;;;;;;;;;;19.69;35.23;100246.88;5055907;28;748;-47
2021/03/18 07:29:19;;;;;;;;;;;;;;;20.50;33.43;100252.53;5055609;28;827;-48
2021/03/18 07:31:45;;;;;;;;;;;;;;;19.93;34.58;100244.72;5055407;28;1918;-55
2021/03/18 07:34:11;;;;;;;;;;;;;;;19.79;34.83;100244.72;5055812;28;804;-55
2021/03/18 07:36:36;;;;;;;;;;;;;;;19.21;35.79;100256.31;5055364;28;820;-52
2021/03/18 07:39:02;;;;;;;;;;;;;;;18.96;36.57;100250.19;5055473;28;845;-53
2021/03/18 07:41:28;;;;;;;;;;;;;;;19.86;34.69;100247.06;5055797;28;828;-54
2021/03/18 07:43:53;;;;;;;;;;;;;;;20.10;34.11;100246.81;5055726;28;776;-52
2021/03/18 07:46:19;;;;;;;;;;;;;;;19.71;34.88;100248.16;5037729;28;859;-52
2021/03/18 07:48:58;;;;;;;;;;;;;;;19.59;35.04;100251.47;5055599;28;951;-46
2021/03/18 07:51:25;;;;;;;;;;;;;;;19.07;36.20;100246.13;5038044;28;1918;-48
2021/03/18 07:53:54;;;;;;;;;;;;;;;20.19;34.02;100252.44;5038723;28;760;-47
2021/03/18 07:56:19;;;;;;;;;;;;;;;20.25;33.67;100245.66;5041607;28;828;-48
2021/03/18 07:58:45;;;;;;;;;;;;;;;19.95;34.40;100247.16;5041427;28;765;-61
2021/03/18 08:01:29;;;;;;;;;;;;;;;19.69;34.92;100244.91;5058811;28;764;-51
2021/03/18 08:03:54;;;;;;;;;;;;;;;19.00;36.26;100239.34;5058807;28;764;-49
2021/03/18 08:06:39;;;;;;;;;;;;;;;19.87;34.55;100245.97;5041480;28;795;-49
2021/03/18 08:09:05;;;;;;;;;;;;;;;20.16;33.87;100248.34;5058656;28;741;-50
2021/03/18 08:11:34;;;;;;;;;;;;;;;19.92;34.43;100258.81;5058801;28;1913;-48
2021/03/18 08:14:07;;;;;;;;;;;;;;;19.67;34.84;100247.19;5058803;28;970;-51
2021/03/18 08:16:33;;;;;;;;;;;;;;;19.02;36.42;100256.41;5059080;28;964;-48
2021/03/18 08:18:59;;;;;;;;;;;;;;;19.74;34.99;100255.03;5058753;28;867;-56
2021/03/18 08:21:43;;;;;;;;;;;;;;;20.25;33.92;100261.41;5058971;28;784;-52
2021/03/18 08:24:10;;;;;;;;;;;;;;;19.95;34.53;100263.72;5058335;28;816;-47
2021/03/18 08:26:44;;;;;;;;;;;;;;;19.67;34.93;100260.97;5058533;28;832;-47
2021/03/18 08:29:33;;;;;;;;;;;;;;;19.04;36.41;100259.66;5058274;28;804;-55
2021/03/18 08:32:05;;;;;;;;;;;;;;;19.94;34.79;100257.38;5047306;28;1895;-46
2021/03/18 08:34:40;;;;;;;;;;;;;;;20.16;34.11;100256.63;5058865;28;783;-49
2021/03/18 08:37:06;;;;;;;;;;;;;;;19.85;34.56;100255.66;5059082;28;752;-46
2021/03/18 08:39:34;;;;;;;;;;;;;;;19.64;34.92;100254.13;5058348;28;787;-47
2021/03/18 08:42:00;;;;;;;;;;;;;;;18.94;36.41;100261.50;5058675;28;753;-49
2021/03/18 08:44:26;;;;;;;;;;;;;;;19.76;34.82;100253.59;5058262;28;767;-49
2021/03/18 08:46:54;;;;;;;;;;;;;;;20.28;34.07;100261.59;5058114;28;1006;-49
2021/03/18 08:49:25;;;;;;;;;;;;;;;19.97;34.45;100267.00;5057893;28;803;-56
2021/03/18 08:51:51;;;;;;;;;;;;;;;19.73;34.80;100276.28;5058091;28;1913;-50
2021/03/18 08:54:35;;;;;;;;;;;;;;;19.02;36.33;100265.47;5058280;28;776;-44
2021/03/18 08:57:00;;;;;;;;;;;;;;;19.86;34.77;100276.63;5058335;28;816;-48
2021/03/18 08:59:25;;;;;;;;;;;;;;;20.40;33.80;100279.56;5040156;28;868;-48
2021/03/18 09:02:20;;;;;;;;;;;;;;;19.93;34.48;100282.53;5057497;28;986;-54
2021/03/18 09:04:46;;;;;;;;;;;;;;;19.69;35.23;100279.97;5044849;28;1277;-61
2021/03/18 09:07:13;;;;;;;;;;;;;;;19.05;36.54;100281.41;5039245;28;824;-59
2021/03/18 09:09:38;;;;;;;;;;;;;;;19.71;35.30;100280.47;5057350;28;752;-53
2021/03/18 09:12:04;;;;;;;;;;;;;;;20.29;33.78;100279.00;5057563;28;1977;-51
2021/03/18 09:14:30;;;;;;;;;;;;;;;19.83;34.66;100272.53;5039930;28;776;-57
2021/03/18 09:17:11;;;;;;;;;;;;;;;19.84;34.84;100271.41;5063901;28;928;-48
2021/03/18 09:19:46;;;;;;;;;;;;;;;19.06;36.40;100285.81;5077527;28;768;-55
2021/03/18 09:22:16;;;;;;;;;;;;;;;19.69;35.11;100285.50;5078017;28;783;-58
2021/03/18 09:24:42;;;;;;;;;;;;;;;20.39;33.74;100280.72;5077511;28;863;-48
2021/03/18 09:27:08;;;;;;;;;;;;;;;19.77;35.01;100282.03;5059792;28;872;-49
2021/03/18 09:29:33;;;;;;;;;;;;;;;19.82;34.89;100293.78;5077529;28;748;-57
2021/03/18 09:32:03;;;;;;;;;;;;;;;19.13;36.06;100280.72;5075855;28;1922;-54
2021/03/18 09:34:35;;;;;;;;;;;;;;;19.83;34.86;100289.88;5077332;28;759;-58
2021/03/18 09:37:00;;;;;;;;;;;;;;;20.35;33.71;100289.59;5077559;28;720;-58
2021/03/18 09:39:26;;;;;;;;;;;;;;;19.92;34.47;100291.94;5076880;28;772;-58
2021/03/18 09:41:51;;;;;;;;;;;;;;;19.77;34.76;100296.63;5077475;28;773;-58
2021/03/18 09:44:21;;;;;;;;;;;;;;;19.24;36.02;100292.38;5077167;28;812;-56
2021/03/18 09:46:50;;;;;;;;;;;;;;;19.71;35.31;100297.81;5076008;28;1006;-53
2021/03/18 09:49:16;;;;;;;;;;;;;;;20.44;33.59;100308.19;5068058;28;1015;-56
2021/03/18 09:51:42;;;;;;;;;;;;;;;19.96;34.67;100306.75;5039795;28;1917;-62
2021/03/18 09:54:08;;;;;;;;;;;;;;;19.88;34.88;100307.47;5072882;28;827;-59
2021/03/18 09:56:37;;;;;;;;;;;;;;;19.33;35.64;100309.03;5055175;28;837;-53
2021/03/18 09:59:04;;;;;;;;;;;;;;;19.57;35.54;100303.38;5056402;28;816;-62
2021/03/18 10:01:29;;;;;;;;;;;;;;;20.41;33.72;100306.06;5072240;28;855;-58
2021/03/18 10:03:55;;;;;;;;;;;;;;;19.97;34.59;100309.19;5054764;28;860;-63
2021/03/18 10:06:24;;;;;;;;;;;;;;;19.87;34.62;100306.66;5056283;28;896;-55
2021/03/18 10:08:49;;;;;;;;;;;;;;;19.23;35.86;100306.47;5054883;28;861;-60
2021/03/18 10:11:15;;;;;;;;;;;;;;;19.44;35.70;100310.47;5055796;28;1926;-51
2021/03/18 10:13:41;;;;;;;;;;;;;;;20.29;33.97;100298.31;5055715;28;828;-52
2021/03/18 10:16:06;;;;;;;;;;;;;;;20.81;33.16;100318.13;5053822;28;888;-54
2021/03/18 10:18:32;;;;;;;;;;;;;;;20.73;33.33;100327.16;5071897;28;1082;-51
2021/03/18 10:21:00;;;;;;;;;;;;;;;20.21;34.31;100327.47;5057841;28;936;-50
2021/03/18 10:23:25;;;;;;;;;;;;;;;19.71;35.09;100322.66;5050451;28;865;-49
2021/03/18 10:25:51;;;;;;;;;;;;;;;19.17;36.36;100322.28;5056987;28;825;-52
2021/03/18 10:28:17;;;;;;;;;;;;;;;19.26;36.23;100336.19;5057599;28;981;-51
2021/03/18 10:30:44;;;;;;;;;;;;;;;20.29;34.03;100325.94;5055916;28;1997;-59
2021/03/18 10:33:12;;;;;;;;;;;;;;;20.17;34.36;100331.97;5055776;28;998;-51
2021/03/18 10:35:40;;;;;;;;;;;;;;;20.11;34.46;100334.03;5055499;28;882;-50
2021/03/18 10:38:05;;;;;;;;;;;;;;;19.56;35.44;100333.97;5055092;28;879;-62
2021/03/18 10:40:37;;;;;;;;;;;;;;;19.06;36.36;100327.13;5055675;28;867;-61
2021/03/18 10:43:02;;;;;;;;;;;;;;;20.04;34.77;100336.38;5054586;28;1213;-58
2021/03/18 10:45:32;;;;;;;;;;;;;;;20.19;34.09;100335.25;5070268;28;851;-48
2021/03/18 10:48:01;;;;;;;;;;;;;;;19.89;34.94;100333.94;5069675;28;1002;-48
2021/03/18 10:50:27;;;;;;;;;;;;;;;19.66;35.40;100333.81;5087103;28;1984;-58
2021/03/18 10:52:57;;;;;;;;;;;;;;;18.91;36.72;100347.50;5095050;28;871;-56
2021/03/18 10:55:26;;;;;;;;;;;;;;;19.95;34.90;100340.97;5081876;28;832;-55
2021/03/18 10:57:53;;;;;;;;;;;;;;;20.18;34.15;100350.97;5093352;28;883;-58
2021/03/18 11:00:22;;;;;;;;;;;;;;;19.80;34.92;100353.97;5095295;28;828;-59
2021/03/18 11:03:00;;;;;;;;;;;;;;;19.72;35.14;100349.13;5072710;28;863;-48
2021/03/18 11:05:29;;;;;;;;;;;;;;;19.20;36.27;100349.22;5069679;28;875;-51
2021/03/18 11:07:56;;;;;;;;;;;;;;;18.94;36.69;100348.81;5071524;28;864;-61
2021/03/18 11:10:21;;;;;;;;;;;;;;;19.61;35.41;100350.44;5085640;28;1917;-52
2021/03/18 11:13:15;;;;;;;;;;;;;;;20.30;34.07;100341.34;5057337;28;816;-63
2021/03/18 11:15:48;;;;;;;;;;;;;;;19.88;34.85;100348.84;5049608;28;1210;-54
2021/03/18 11:18:14;;;;;;;;;;;;;;;19.74;35.28;100351.56;5069346;28;950;-55
2021/03/18 11:20:39;;;;;;;;;;;;;;;19.19;36.13;100347.59;5057284;28;900;-62
2021/03/18 11:23:05;;;;;;;;;;;;;;;19.20;36.16;100348.44;5074946;28;832;-47
2021/03/18 11:25:30;;;;;;;;;;;;;;;20.11;34.33;100338.75;5075059;28;872;-48
2021/03/18 11:27:56;;;;;;;;;;;;;;;20.04;34.58;100346.63;5056453;28;884;-57
2021/03/18 11:30:27;;;;;;;;;;;;;;;19.89;34.76;100342.22;5078255;28;1973;-58
2021/03/18 11:33:08;;;;;;;;;;;;;;;19.42;35.64;100351.34;5066559;28;1163;-53
2021/03/18 11:35:34;;;;;;;;;;;;;;;19.01;36.62;100357.53;5075396;28;872;-51
2021/03/18 11:37:59;;;;;;;;;;;;;;;19.95;35.00;100349.25;5058709;28;872;-50
2021/03/18 11:40:25;;;;;;;;;;;;;;;20.15;34.22;100348.84;5058747;28;872;-53
2021/03/18 11:42:50;;;;;;;;;;;;;;;19.88;34.98;100340.56;5058769;28;809;-54
2021/03/18 11:45:16;;;;;;;;;;;;;;;19.68;35.32;100353.59;5058659;28;883;-52
2021/03/18 11:47:41;;;;;;;;;;;;;;;18.96;36.47;100355.69;5067914;28;820;-48
2021/03/18 11:50:07;;;;;;;;;;;;;;;19.65;35.46;100348.72;5078757;28;1913;-45
2021/03/18 11:52:33;;;;;;;;;;;;;;;20.24;34.19;100353.66;5062142;28;821;-49
2021/03/18 11:54:59;;;;;;;;;;;;;;;19.87;34.61;100361.03;5082494;28;872;-47
2021/03/18 11:57:24;;;;;;;;;;;;;;;19.78;34.98;100358.94;5084487;28;820;-52
2021/03/18 11:59:50;;;;;;;;;;;;;;;19.14;36.28;100354.00;5091463;28;820;-48
2021/03/18 12:02:15;;;;;;;;;;;;;;;19.64;35.67;100355.34;5072905;28;828;-62
2021/03/18 12:04:41;;;;;;;;;;;;;;;20.34;33.91;100348.72;5091711;28;838;-47
2021/03/18 12:07:06;;;;;;;;;;;;;;;19.93;34.88;100344.03;5057875;28;820;-57
2021/03/18 12:09:32;;;;;;;;;;;;;;;19.81;35.19;100349.25;5074822;28;821;-54
2021/03/18 12:11:57;;;;;;;;;;;;;;;19.19;36.41;100349.53;5074726;28;1906;-49
2021/03/18 12:14:23;;;;;;;;;;;;;;;19.27;36.16;100359.88;5057910;28;878;-62
2021/03/18 12:16:48;;;;;;;;;;;;;;;20.22;34.61;100358.66;5091188;28;832;-56
2021/03/18 12:19:14;;;;;;;;;;;;;;;19.94;34.81;100350.41;5064142;28;828;-46
2021/03/18 12:21:39;;;;;;;;;;;;;;;19.87;34.91;100372.88;5059400;28;883;-60
2021/03/18 12:24:05;;;;;;;;;;;;;;;19.37;36.02;100365.19;5098397;28;836;-50
2021/03/18 12:26:31;;;;;;;;;;;;;;;19.13;36.51;100360.63;5066039;28;886;-56
2021/03/18 12:28:56;;;;;;;;;;;;;;;20.09;34.82;100355.59;5057522;28;942;-55
2021/03/18 12:31:22;;;;;;;;;;;;;;;19.99;34.59;100358.56;5074583;28;1981;-48
2021/03/18 12:33:47;;;;;;;;;;;;;;;19.93;35.22;100363.38;5057900;28;1152;-48
2021/03/18 12:36:13;;;;;;;;;;;;;;;19.46;35.55;100363.41;5057479;28;891;-55
2021/03/18 12:38:38;;;;;;;;;;;;;;;19.00;36.74;100361.41;5042423;28;814;-49
2021/03/18 12:41:04;;;;;;;;;;;;;;;19.82;35.02;100357.25;5039194;28;873;-57
2021/03/18 12:43:29;;;;;;;;;;;;;;;20.33;33.98;100368.38;5057741;28;872;-49
2021/03/18 12:45:54;;;;;;;;;;;;;;;19.98;35.03;100357.75;5057583;28;821;-61
2021/03/18 12:48:20;;;;;;;;;;;;;;;19.77;35.04;100362.03;5057986;28;1010;-52
2021/03/18 12:50:45;;;;;;;;;;;;;;;19.14;36.54;100362.28;5077141;28;1975;-50
2021/03/18 12:53:11;;;;;;;;;;;;;;;19.17;36.60;100371.06;5070701;28;929;-56
2021/03/18 12:55:36;;;;;;;;;;;;;;;20.15;34.72;100367.38;5050877;28;876;-59
2021/03/18 12:58:02;;;;;;;;;;;;;;;19.96;34.97;100371.06;5077210;28;876;-55